sensor_id;sensor_type;location;lat;lon;timestamp;temperature;humidity
4643;DHT22;2334;48.710;9.622;2022-11-15T00:01:15;7.40;99.90
4643;DHT22;2334;48.710;9.622;2022-11-15T00:03:43;7.40;99.90
4643;DHT22;2334;48.710;9.622;2022-11-15T00:06:10;7.40;99.90
4643;DHT22;2334;48.710;9.622;2022-11-15T00:08:37;7.40;99.90
4643;DHT22;2334;48.710;9.622;2022-11-15T00:11:04;7.40;99.90
4643;DHT22;2334;48.710;9.622;2022-11-15T00:13:31;7.40;99.90
4643;DHT22;2334;48.710;9.622;2022-11-15T00:16:00;7.40;99.90
4643;DHT22;2334;48.710;9.622;2022-11-15T00:18:28;7.40;99.90
4643;DHT22;2334;48.710;9.622;2022-11-15T00:20:56;7.40;99.90
4643;DHT22;2334;48.710;9.622;2022-11-15T00:23:22;7.30;99.90
4643;DHT22;2334;48.710;9.622;2022-11-15T00:25:55;7.40;99.90
4643;DHT22;2334;48.710;9.622;2022-11-15T00:28:22;7.40;99.90
4643;DHT22;2334;48.710;9.622;2022-11-15T00:30:49;7.40;99.90
4643;DHT22;2334;48.710;9.622;2022-11-15T00:33:18;7.40;99.90
4643;DHT22;2334;48.710;9.622;2022-11-15T00:35:45;7.40;99.90
4643;DHT22;2334;48.710;9.622;2022-11-15T00:38:12;7.40;99.90
4643;DHT22;2334;48.710;9.622;2022-11-15T00:40:39;7.50;99.90
4643;DHT22;2334;48.710;9.622;2022-11-15T00:43:06;7.40;99.90
4643;DHT22;2334;48.710;9.622;2022-11-15T00:45:33;7.40;99.90
4643;DHT22;2334;48.710;9.622;2022-11-15T00:48:00;7.40;99.90
4643;DHT22;2334;48.710;9.622;2022-11-15T00:50:28;7.50;99.90
4643;DHT22;2334;48.710;9.622;2022-11-15T00:52:55;7.50;99.90
4643;DHT22;2334;48.710;9.622;2022-11-15T00:55:22;7.40;99.90
4643;DHT22;2334;48.710;9.622;2022-11-15T00:57:49;7.40;99.90
4643;DHT22;2334;48.710;9.622;2022-11-15T01:00:16;7.40;99.90
4643;DHT22;2334;48.710;9.622;2022-11-15T01:02:43;7.40;99.90
4643;DHT22;2334;48.710;9.622;2022-11-15T01:05:10;7.40;99.90
4643;DHT22;2334;48.710;9.622;2022-11-15T01:07:38;7.30;99.90
4643;DHT22;2334;48.710;9.622;2022-11-15T01:10:06;7.30;99.90
4643;DHT22;2334;48.710;9.622;2022-11-15T01:12:33;7.30;99.90
4643;DHT22;2334;48.710;9.622;2022-11-15T01:15:00;7.30;99.90
4643;DHT22;2334;48.710;9.622;2022-11-15T01:17:27;7.20;99.90
4643;DHT22;2334;48.710;9.622;2022-11-15T01:19:54;7.20;99.90
4643;DHT22;2334;48.710;9.622;2022-11-15T01:22:21;7.20;99.90
4643;DHT22;2334;48.710;9.622;2022-11-15T01:24:50;7.10;99.90
4643;DHT22;2334;48.710;9.622;2022-11-15T01:27:17;7.10;99.90
4643;DHT22;2334;48.710;9.622;2022-11-15T01:29:44;7.10;99.90
4643;DHT22;2334;48.710;9.622;2022-11-15T01:32:11;7.00;99.90
4643;DHT22;2334;48.710;9.622;2022-11-15T01:34:38;7.00;99.90
4643;DHT22;2334;48.710;9.622;2022-11-15T01:37:05;6.90;99.90
4643;DHT22;2334;48.710;9.622;2022-11-15T01:39:35;6.90;99.90
4643;DHT22;2334;48.710;9.622;2022-11-15T01:42:03;6.90;99.90
4643;DHT22;2334;48.710;9.622;2022-11-15T01:44:42;6.90;99.90
4643;DHT22;2334;48.710;9.622;2022-11-15T01:47:12;6.80;99.90
4643;DHT22;2334;48.710;9.622;2022-11-15T01:49:44;6.80;99.90
4643;DHT22;2334;48.710;9.622;2022-11-15T01:52:14;6.70;99.90
4643;DHT22;2334;48.710;9.622;2022-11-15T01:54:43;6.60;99.90
4643;DHT22;2334;48.710;9.622;2022-11-15T01:57:13;6.60;99.90
4643;DHT22;2334;48.710;9.622;2022-11-15T01:59:43;6.50;99.90
4643;DHT22;2334;48.710;9.622;2022-11-15T02:02:11;6.50;99.90
4643;DHT22;2334;48.710;9.622;2022-11-15T02:04:41;6.40;99.90
4643;DHT22;2334;48.710;9.622;2022-11-15T02:07:11;6.40;99.90
4643;DHT22;2334;48.710;9.622;2022-11-15T02:09:39;6.40;99.90
4643;DHT22;2334;48.710;9.622;2022-11-15T02:12:07;6.40;99.90
4643;DHT22;2334;48.710;9.622;2022-11-15T02:14:37;6.30;99.90
4643;DHT22;2334;48.710;9.622;2022-11-15T02:17:21;6.20;99.90
4643;DHT22;2334;48.710;9.622;2022-11-15T02:20:09;6.20;99.90
4643;DHT22;2334;48.710;9.622;2022-11-15T02:22:50;6.10;99.90
4643;DHT22;2334;48.710;9.622;2022-11-15T02:25:36;6.00;99.90
4643;DHT22;2334;48.710;9.622;2022-11-15T02:28:16;6.00;99.90
4643;DHT22;2334;48.710;9.622;2022-11-15T02:30:52;6.00;99.90
4643;DHT22;2334;48.710;9.622;2022-11-15T02:33:28;6.00;99.90
4643;DHT22;2334;48.710;9.622;2022-11-15T02:36:02;5.90;99.90
4643;DHT22;2334;48.710;9.622;2022-11-15T02:38:37;5.90;99.90
4643;DHT22;2334;48.710;9.622;2022-11-15T02:41:10;5.80;99.90
4643;DHT22;2334;48.710;9.622;2022-11-15T02:43:40;5.80;99.90
4643;DHT22;2334;48.710;9.622;2022-11-15T02:46:32;5.70;99.90
4643;DHT22;2334;48.710;9.622;2022-11-15T02:49:18;5.70;99.90
4643;DHT22;2334;48.710;9.622;2022-11-15T02:51:47;5.60;99.90
4643;DHT22;2334;48.710;9.622;2022-11-15T02:54:17;5.50;99.90
4643;DHT22;2334;48.710;9.622;2022-11-15T02:56:46;5.50;99.90
4643;DHT22;2334;48.710;9.622;2022-11-15T02:59:24;5.50;99.90
4643;DHT22;2334;48.710;9.622;2022-11-15T03:02:08;5.50;99.90
4643;DHT22;2334;48.710;9.622;2022-11-15T03:04:43;5.40;99.90
4643;DHT22;2334;48.710;9.622;2022-11-15T03:07:15;5.40;99.90
4643;DHT22;2334;48.710;9.622;2022-11-15T03:09:51;5.40;99.90
4643;DHT22;2334;48.710;9.622;2022-11-15T03:12:26;5.40;99.90
4643;DHT22;2334;48.710;9.622;2022-11-15T03:14:57;5.40;99.90
4643;DHT22;2334;48.710;9.622;2022-11-15T03:17:30;5.40;99.90
4643;DHT22;2334;48.710;9.622;2022-11-15T03:20:02;5.40;99.90
4643;DHT22;2334;48.710;9.622;2022-11-15T03:22:34;5.30;99.90
4643;DHT22;2334;48.710;9.622;2022-11-15T03:25:06;5.40;99.90
4643;DHT22;2334;48.710;9.622;2022-11-15T03:27:37;5.40;99.90
4643;DHT22;2334;48.710;9.622;2022-11-15T03:30:07;5.40;99.90
4643;DHT22;2334;48.710;9.622;2022-11-15T03:32:38;5.40;99.90
4643;DHT22;2334;48.710;9.622;2022-11-15T03:35:11;5.50;99.90
4643;DHT22;2334;48.710;9.622;2022-11-15T03:37:43;5.50;99.90
4643;DHT22;2334;48.710;9.622;2022-11-15T03:40:11;5.50;99.90
4643;DHT22;2334;48.710;9.622;2022-11-15T03:42:42;5.50;99.90
4643;DHT22;2334;48.710;9.622;2022-11-15T03:45:14;5.50;99.90
4643;DHT22;2334;48.710;9.622;2022-11-15T03:47:48;5.50;99.90
4643;DHT22;2334;48.710;9.622;2022-11-15T03:50:18;5.60;99.90
4643;DHT22;2334;48.710;9.622;2022-11-15T03:52:46;5.50;99.90
4643;DHT22;2334;48.710;9.622;2022-11-15T03:55:16;5.60;99.90
4643;DHT22;2334;48.710;9.622;2022-11-15T03:57:44;5.60;99.90
4643;DHT22;2334;48.710;9.622;2022-11-15T04:00:11;5.50;99.90
4643;DHT22;2334;48.710;9.622;2022-11-15T04:02:38;5.60;99.90
4643;DHT22;2334;48.710;9.622;2022-11-15T04:05:07;5.50;99.90
4643;DHT22;2334;48.710;9.622;2022-11-15T04:07:34;5.50;99.90
4643;DHT22;2334;48.710;9.622;2022-11-15T04:10:01;5.60;99.90
4643;DHT22;2334;48.710;9.622;2022-11-15T04:12:31;5.60;99.90
4643;DHT22;2334;48.710;9.622;2022-11-15T04:15:00;5.60;99.90
4643;DHT22;2334;48.710;9.622;2022-11-15T04:17:37;5.70;99.90
4643;DHT22;2334;48.710;9.622;2022-11-15T04:20:09;5.70;99.90
4643;DHT22;2334;48.710;9.622;2022-11-15T04:22:54;5.70;99.90
4643;DHT22;2334;48.710;9.622;2022-11-15T04:25:39;5.70;99.90
4643;DHT22;2334;48.710;9.622;2022-11-15T04:28:06;5.80;99.90
4643;DHT22;2334;48.710;9.622;2022-11-15T04:30:33;5.90;99.90
4643;DHT22;2334;48.710;9.622;2022-11-15T04:33:00;6.00;99.90
4643;DHT22;2334;48.710;9.622;2022-11-15T04:35:29;6.00;99.90
4643;DHT22;2334;48.710;9.622;2022-11-15T04:37:57;6.10;99.90
4643;DHT22;2334;48.710;9.622;2022-11-15T04:40:23;6.10;99.90
4643;DHT22;2334;48.710;9.622;2022-11-15T04:42:50;6.20;99.90
4643;DHT22;2334;48.710;9.622;2022-11-15T04:45:16;6.20;99.90
4643;DHT22;2334;48.710;9.622;2022-11-15T04:47:44;6.30;99.90
4643;DHT22;2334;48.710;9.622;2022-11-15T04:50:11;6.30;99.90
4643;DHT22;2334;48.710;9.622;2022-11-15T04:52:42;6.30;99.90
4643;DHT22;2334;48.710;9.622;2022-11-15T04:55:09;6.30;99.90
4643;DHT22;2334;48.710;9.622;2022-11-15T04:57:36;6.30;99.90
4643;DHT22;2334;48.710;9.622;2022-11-15T05:00:05;6.40;99.90
4643;DHT22;2334;48.710;9.622;2022-11-15T05:02:32;6.40;99.90
4643;DHT22;2334;48.710;9.622;2022-11-15T05:05:13;6.40;99.90
4643;DHT22;2334;48.710;9.622;2022-11-15T05:07:41;6.50;99.90
4643;DHT22;2334;48.710;9.622;2022-11-15T05:10:09;6.50;99.90
4643;DHT22;2334;48.710;9.622;2022-11-15T05:12:36;6.50;99.90
4643;DHT22;2334;48.710;9.622;2022-11-15T05:15:04;6.60;99.90
4643;DHT22;2334;48.710;9.622;2022-11-15T05:17:31;6.60;99.90
4643;DHT22;2334;48.710;9.622;2022-11-15T05:19:58;6.60;99.90
4643;DHT22;2334;48.710;9.622;2022-11-15T05:22:25;6.70;99.90
4643;DHT22;2334;48.710;9.622;2022-11-15T05:24:53;6.70;99.90
4643;DHT22;2334;48.710;9.622;2022-11-15T05:27:20;6.80;99.90
4643;DHT22;2334;48.710;9.622;2022-11-15T05:29:47;6.90;99.90
4643;DHT22;2334;48.710;9.622;2022-11-15T05:32:14;6.90;99.90
4643;DHT22;2334;48.710;9.622;2022-11-15T05:34:40;6.90;99.90
4643;DHT22;2334;48.710;9.622;2022-11-15T05:37:07;6.90;99.90
4643;DHT22;2334;48.710;9.622;2022-11-15T05:39:34;6.90;99.90
4643;DHT22;2334;48.710;9.622;2022-11-15T05:42:06;6.90;99.90
4643;DHT22;2334;48.710;9.622;2022-11-15T05:44:34;6.90;99.90
4643;DHT22;2334;48.710;9.622;2022-11-15T05:47:03;7.00;99.90
4643;DHT22;2334;48.710;9.622;2022-11-15T05:49:32;7.00;99.90
4643;DHT22;2334;48.710;9.622;2022-11-15T05:52:02;7.00;99.90
4643;DHT22;2334;48.710;9.622;2022-11-15T05:54:31;7.00;99.90
4643;DHT22;2334;48.710;9.622;2022-11-15T05:56:59;7.10;99.90
4643;DHT22;2334;48.710;9.622;2022-11-15T05:59:28;7.10;99.90
4643;DHT22;2334;48.710;9.622;2022-11-15T06:01:56;7.10;99.90
4643;DHT22;2334;48.710;9.622;2022-11-15T06:04:22;7.20;99.90
4643;DHT22;2334;48.710;9.622;2022-11-15T06:06:49;7.20;99.90
4643;DHT22;2334;48.710;9.622;2022-11-15T06:09:16;7.20;99.90
4643;DHT22;2334;48.710;9.622;2022-11-15T06:11:43;7.10;99.90
4643;DHT22;2334;48.710;9.622;2022-11-15T06:14:10;7.10;99.90
4643;DHT22;2334;48.710;9.622;2022-11-15T06:16:38;7.20;99.90
4643;DHT22;2334;48.710;9.622;2022-11-15T06:19:06;7.10;99.90
4643;DHT22;2334;48.710;9.622;2022-11-15T06:21:33;7.20;99.90
4643;DHT22;2334;48.710;9.622;2022-11-15T06:23:59;7.20;99.90
4643;DHT22;2334;48.710;9.622;2022-11-15T06:26:26;7.20;99.90
4643;DHT22;2334;48.710;9.622;2022-11-15T06:28:53;7.20;99.90
4643;DHT22;2334;48.710;9.622;2022-11-15T06:31:20;7.20;99.90
4643;DHT22;2334;48.710;9.622;2022-11-15T06:33:48;7.20;99.90
4643;DHT22;2334;48.710;9.622;2022-11-15T06:36:16;7.20;99.90
4643;DHT22;2334;48.710;9.622;2022-11-15T06:38:43;7.20;99.90
4643;DHT22;2334;48.710;9.622;2022-11-15T06:41:11;7.20;99.90
4643;DHT22;2334;48.710;9.622;2022-11-15T06:43:38;7.20;99.90
4643;DHT22;2334;48.710;9.622;2022-11-15T06:46:06;7.10;99.90
4643;DHT22;2334;48.710;9.622;2022-11-15T06:48:34;7.10;99.90
4643;DHT22;2334;48.710;9.622;2022-11-15T06:51:04;7.00;99.90
4643;DHT22;2334;48.710;9.622;2022-11-15T06:53:31;7.00;99.90
4643;DHT22;2334;48.710;9.622;2022-11-15T06:55:59;6.90;99.90
4643;DHT22;2334;48.710;9.622;2022-11-15T06:58:27;7.00;99.90
4643;DHT22;2334;48.710;9.622;2022-11-15T07:00:57;7.10;99.90
4643;DHT22;2334;48.710;9.622;2022-11-15T07:03:24;7.00;99.90
4643;DHT22;2334;48.710;9.622;2022-11-15T07:05:52;7.10;99.90
4643;DHT22;2334;48.710;9.622;2022-11-15T07:08:22;7.20;99.90
4643;DHT22;2334;48.710;9.622;2022-11-15T07:10:48;7.20;99.90
4643;DHT22;2334;48.710;9.622;2022-11-15T07:13:16;7.30;99.90
4643;DHT22;2334;48.710;9.622;2022-11-15T07:15:42;7.40;99.90
4643;DHT22;2334;48.710;9.622;2022-11-15T07:18:09;7.60;99.90
4643;DHT22;2334;48.710;9.622;2022-11-15T07:20:36;7.60;99.90
4643;DHT22;2334;48.710;9.622;2022-11-15T07:23:05;7.60;99.90
4643;DHT22;2334;48.710;9.622;2022-11-15T07:25:33;7.70;99.90
4643;DHT22;2334;48.710;9.622;2022-11-15T07:28:00;7.70;99.90
4643;DHT22;2334;48.710;9.622;2022-11-15T07:30:27;7.80;99.90
4643;DHT22;2334;48.710;9.622;2022-11-15T07:32:54;7.80;99.90
4643;DHT22;2334;48.710;9.622;2022-11-15T07:35:21;7.80;99.90
4643;DHT22;2334;48.710;9.622;2022-11-15T07:37:58;7.90;99.90
4643;DHT22;2334;48.710;9.622;2022-11-15T07:40:25;7.90;99.90
4643;DHT22;2334;48.710;9.622;2022-11-15T07:42:59;8.00;99.90
4643;DHT22;2334;48.710;9.622;2022-11-15T07:45:25;8.10;99.90
4643;DHT22;2334;48.710;9.622;2022-11-15T07:47:53;8.10;99.90
4643;DHT22;2334;48.710;9.622;2022-11-15T07:50:21;8.20;99.90
4643;DHT22;2334;48.710;9.622;2022-11-15T07:52:53;8.20;99.90
4643;DHT22;2334;48.710;9.622;2022-11-15T07:55:21;8.30;99.90
4643;DHT22;2334;48.710;9.622;2022-11-15T07:57:48;8.40;99.90
4643;DHT22;2334;48.710;9.622;2022-11-15T08:00:17;8.40;99.90
4643;DHT22;2334;48.710;9.622;2022-11-15T08:02:44;8.40;99.90
4643;DHT22;2334;48.710;9.622;2022-11-15T08:05:12;8.40;99.90
4643;DHT22;2334;48.710;9.622;2022-11-15T08:07:38;8.40;99.90
4643;DHT22;2334;48.710;9.622;2022-11-15T08:10:07;8.50;99.90
4643;DHT22;2334;48.710;9.622;2022-11-15T08:12:34;8.60;99.90
4643;DHT22;2334;48.710;9.622;2022-11-15T08:15:01;8.70;99.90
4643;DHT22;2334;48.710;9.622;2022-11-15T08:17:29;8.80;99.90
4643;DHT22;2334;48.710;9.622;2022-11-15T08:19:58;9.00;99.90
4643;DHT22;2334;48.710;9.622;2022-11-15T08:22:25;9.10;99.90
4643;DHT22;2334;48.710;9.622;2022-11-15T08:24:52;9.30;99.90
4643;DHT22;2334;48.710;9.622;2022-11-15T08:27:19;9.40;99.90
4643;DHT22;2334;48.710;9.622;2022-11-15T08:29:48;9.60;99.90
4643;DHT22;2334;48.710;9.622;2022-11-15T08:32:15;9.80;99.90
4643;DHT22;2334;48.710;9.622;2022-11-15T08:34:44;10.00;99.90
4643;DHT22;2334;48.710;9.622;2022-11-15T08:37:11;10.20;99.90
4643;DHT22;2334;48.710;9.622;2022-11-15T08:39:38;10.50;99.90
4643;DHT22;2334;48.710;9.622;2022-11-15T08:42:05;10.70;99.90
4643;DHT22;2334;48.710;9.622;2022-11-15T08:44:32;10.90;99.90
4643;DHT22;2334;48.710;9.622;2022-11-15T08:46:59;11.10;99.90
4643;DHT22;2334;48.710;9.622;2022-11-15T08:49:25;11.30;99.90
4643;DHT22;2334;48.710;9.622;2022-11-15T08:51:54;11.50;99.90
4643;DHT22;2334;48.710;9.622;2022-11-15T08:54:20;11.50;99.90
4643;DHT22;2334;48.710;9.622;2022-11-15T08:56:47;11.50;99.90
4643;DHT22;2334;48.710;9.622;2022-11-15T08:59:14;11.40;99.90
4643;DHT22;2334;48.710;9.622;2022-11-15T09:01:41;11.40;99.90
4643;DHT22;2334;48.710;9.622;2022-11-15T09:04:08;11.30;99.90
4643;DHT22;2334;48.710;9.622;2022-11-15T09:06:35;11.30;99.90
4643;DHT22;2334;48.710;9.622;2022-11-15T09:09:03;11.30;99.90
4643;DHT22;2334;48.710;9.622;2022-11-15T09:11:30;11.30;99.90
4643;DHT22;2334;48.710;9.622;2022-11-15T09:13:57;11.30;99.90
4643;DHT22;2334;48.710;9.622;2022-11-15T09:16:24;11.20;99.90
4643;DHT22;2334;48.710;9.622;2022-11-15T09:18:52;11.30;99.90
4643;DHT22;2334;48.710;9.622;2022-11-15T09:21:19;11.30;99.90
4643;DHT22;2334;48.710;9.622;2022-11-15T09:23:46;11.30;99.90
4643;DHT22;2334;48.710;9.622;2022-11-15T09:26:14;11.40;99.90
4643;DHT22;2334;48.710;9.622;2022-11-15T09:28:41;11.40;99.90
4643;DHT22;2334;48.710;9.622;2022-11-15T09:31:08;11.30;99.90
4643;DHT22;2334;48.710;9.622;2022-11-15T09:33:36;11.40;99.90
4643;DHT22;2334;48.710;9.622;2022-11-15T09:36:05;11.40;99.90
4643;DHT22;2334;48.710;9.622;2022-11-15T09:38:32;11.40;99.90
4643;DHT22;2334;48.710;9.622;2022-11-15T09:41:34;11.60;99.90
4643;DHT22;2334;48.710;9.622;2022-11-15T09:44:18;11.70;99.90
4643;DHT22;2334;48.710;9.622;2022-11-15T09:46:55;11.80;99.90
4643;DHT22;2334;48.710;9.622;2022-11-15T09:49:24;11.90;99.90
4643;DHT22;2334;48.710;9.622;2022-11-15T09:51:53;12.10;99.90
4643;DHT22;2334;48.710;9.622;2022-11-15T09:54:27;12.10;99.90
4643;DHT22;2334;48.710;9.622;2022-11-15T09:57:03;12.20;99.90
4643;DHT22;2334;48.710;9.622;2022-11-15T09:59:46;12.20;99.90
4643;DHT22;2334;48.710;9.622;2022-11-15T10:02:30;12.20;99.90
4643;DHT22;2334;48.710;9.622;2022-11-15T10:05:01;12.30;99.90
4643;DHT22;2334;48.710;9.622;2022-11-15T10:07:34;12.30;99.90
4643;DHT22;2334;48.710;9.622;2022-11-15T10:10:11;12.40;99.90
4643;DHT22;2334;48.710;9.622;2022-11-15T10:12:44;12.40;99.90
4643;DHT22;2334;48.710;9.622;2022-11-15T10:15:15;12.40;99.90
4643;DHT22;2334;48.710;9.622;2022-11-15T10:18:09;12.40;99.90
4643;DHT22;2334;48.710;9.622;2022-11-15T10:20:46;12.50;99.90
4643;DHT22;2334;48.710;9.622;2022-11-15T10:23:16;12.50;99.90
4643;DHT22;2334;48.710;9.622;2022-11-15T10:25:44;12.60;99.90
4643;DHT22;2334;48.710;9.622;2022-11-15T10:28:15;12.60;99.90
4643;DHT22;2334;48.710;9.622;2022-11-15T10:30:44;12.60;99.90
4643;DHT22;2334;48.710;9.622;2022-11-15T10:33:18;12.70;99.90
4643;DHT22;2334;48.710;9.622;2022-11-15T10:35:48;12.70;99.90
4643;DHT22;2334;48.710;9.622;2022-11-15T10:38:15;12.80;99.90
4643;DHT22;2334;48.710;9.622;2022-11-15T10:40:42;12.90;99.90
4643;DHT22;2334;48.710;9.622;2022-11-15T10:43:17;12.90;99.90
4643;DHT22;2334;48.710;9.622;2022-11-15T10:45:45;12.90;99.90
4643;DHT22;2334;48.710;9.622;2022-11-15T10:48:23;13.00;99.90
4643;DHT22;2334;48.710;9.622;2022-11-15T10:50:53;13.00;99.90
4643;DHT22;2334;48.710;9.622;2022-11-15T10:53:29;13.20;99.90
4643;DHT22;2334;48.710;9.622;2022-11-15T10:56:05;13.20;99.90
4643;DHT22;2334;48.710;9.622;2022-11-15T10:58:37;13.40;99.90
4643;DHT22;2334;48.710;9.622;2022-11-15T11:01:25;13.60;99.90
4643;DHT22;2334;48.710;9.622;2022-11-15T11:04:00;13.70;99.90
4643;DHT22;2334;48.710;9.622;2022-11-15T11:06:27;13.70;99.90
4643;DHT22;2334;48.710;9.622;2022-11-15T11:08:57;13.90;99.90
4643;DHT22;2334;48.710;9.622;2022-11-15T11:11:24;14.00;99.90
4643;DHT22;2334;48.710;9.622;2022-11-15T11:13:52;14.10;99.90
4643;DHT22;2334;48.710;9.622;2022-11-15T11:16:31;14.20;99.90
4643;DHT22;2334;48.710;9.622;2022-11-15T11:19:04;14.20;99.90
4643;DHT22;2334;48.710;9.622;2022-11-15T11:21:41;14.30;99.90
4643;DHT22;2334;48.710;9.622;2022-11-15T11:24:16;14.30;99.90
4643;DHT22;2334;48.710;9.622;2022-11-15T11:26:49;14.30;99.90
4643;DHT22;2334;48.710;9.622;2022-11-15T11:29:29;14.30;99.90
4643;DHT22;2334;48.710;9.622;2022-11-15T11:32:05;14.40;99.90
4643;DHT22;2334;48.710;9.622;2022-11-15T11:34:48;14.50;99.90
4643;DHT22;2334;48.710;9.622;2022-11-15T11:37:23;14.60;99.90
4643;DHT22;2334;48.710;9.622;2022-11-15T11:40:03;14.70;99.90
4643;DHT22;2334;48.710;9.622;2022-11-15T11:42:38;14.70;99.90
4643;DHT22;2334;48.710;9.622;2022-11-15T11:45:15;14.60;99.90
4643;DHT22;2334;48.710;9.622;2022-11-15T11:47:47;14.60;99.90
4643;DHT22;2334;48.710;9.622;2022-11-15T11:50:19;14.60;99.90
4643;DHT22;2334;48.710;9.622;2022-11-15T11:52:55;14.50;99.90
4643;DHT22;2334;48.710;9.622;2022-11-15T11:55:26;14.60;99.90
4643;DHT22;2334;48.710;9.622;2022-11-15T11:58:06;14.60;99.90
4643;DHT22;2334;48.710;9.622;2022-11-15T12:00:41;14.50;99.90
4643;DHT22;2334;48.710;9.622;2022-11-15T12:03:12;14.50;99.90
4643;DHT22;2334;48.710;9.622;2022-11-15T12:05:44;14.50;99.90
4643;DHT22;2334;48.710;9.622;2022-11-15T12:08:24;14.50;99.90
4643;DHT22;2334;48.710;9.622;2022-11-15T12:10:59;14.50;99.90
4643;DHT22;2334;48.710;9.622;2022-11-15T12:13:29;14.60;99.90
4643;DHT22;2334;48.710;9.622;2022-11-15T12:16:07;14.60;99.90
4643;DHT22;2334;48.710;9.622;2022-11-15T12:18:36;14.60;99.90
4643;DHT22;2334;48.710;9.622;2022-11-15T12:21:07;14.60;99.90
4643;DHT22;2334;48.710;9.622;2022-11-15T12:23:43;14.60;99.90
4643;DHT22;2334;48.710;9.622;2022-11-15T12:26:18;14.70;99.90
4643;DHT22;2334;48.710;9.622;2022-11-15T12:28:50;14.70;99.90
4643;DHT22;2334;48.710;9.622;2022-11-15T12:31:23;14.80;99.90
4643;DHT22;2334;48.710;9.622;2022-11-15T12:33:56;14.70;99.90
4643;DHT22;2334;48.710;9.622;2022-11-15T12:36:35;14.80;99.90
4643;DHT22;2334;48.710;9.622;2022-11-15T12:39:04;14.70;99.90
4643;DHT22;2334;48.710;9.622;2022-11-15T12:41:32;14.70;99.90
4643;DHT22;2334;48.710;9.622;2022-11-15T12:43:59;14.70;99.90
4643;DHT22;2334;48.710;9.622;2022-11-15T12:47:02;14.60;99.90
4643;DHT22;2334;48.710;9.622;2022-11-15T12:49:46;14.60;99.90
4643;DHT22;2334;48.710;9.622;2022-11-15T12:52:14;14.60;99.90
4643;DHT22;2334;48.710;9.622;2022-11-15T12:54:55;14.70;99.90
4643;DHT22;2334;48.710;9.622;2022-11-15T12:57:37;14.70;99.90
4643;DHT22;2334;48.710;9.622;2022-11-15T13:03:23;14.60;99.90
4643;DHT22;2334;48.710;9.622;2022-11-15T13:06:07;14.60;99.90
4643;DHT22;2334;48.710;9.622;2022-11-15T13:08:43;14.50;99.90
4643;DHT22;2334;48.710;9.622;2022-11-15T13:11:50;14.50;99.90
4643;DHT22;2334;48.710;9.622;2022-11-15T13:14:43;14.50;99.90
4643;DHT22;2334;48.710;9.622;2022-11-15T13:17:27;14.50;99.90
4643;DHT22;2334;48.710;9.622;2022-11-15T13:20:02;14.50;99.90
4643;DHT22;2334;48.710;9.622;2022-11-15T13:22:39;14.50;99.90
4643;DHT22;2334;48.710;9.622;2022-11-15T13:25:38;14.50;99.90
4643;DHT22;2334;48.710;9.622;2022-11-15T13:28:17;14.50;99.90
4643;DHT22;2334;48.710;9.622;2022-11-15T13:30:50;14.50;99.90
4643;DHT22;2334;48.710;9.622;2022-11-15T13:33:19;14.40;99.90
4643;DHT22;2334;48.710;9.622;2022-11-15T13:35:49;14.40;99.90
4643;DHT22;2334;48.710;9.622;2022-11-15T13:38:22;14.40;99.90
4643;DHT22;2334;48.710;9.622;2022-11-15T13:40:51;14.40;99.90
4643;DHT22;2334;48.710;9.622;2022-11-15T13:43:27;14.40;99.90
4643;DHT22;2334;48.710;9.622;2022-11-15T13:46:11;14.40;99.90
4643;DHT22;2334;48.710;9.622;2022-11-15T13:48:38;14.40;99.90
4643;DHT22;2334;48.710;9.622;2022-11-15T13:51:16;14.40;99.90
4643;DHT22;2334;48.710;9.622;2022-11-15T13:53:58;14.50;99.90
4643;DHT22;2334;48.710;9.622;2022-11-15T13:56:27;14.40;99.90
4643;DHT22;2334;48.710;9.622;2022-11-15T13:58:55;14.40;99.90
4643;DHT22;2334;48.710;9.622;2022-11-15T14:01:23;14.30;99.90
4643;DHT22;2334;48.710;9.622;2022-11-15T14:03:56;14.30;99.90
4643;DHT22;2334;48.710;9.622;2022-11-15T14:06:28;14.20;99.90
4643;DHT22;2334;48.710;9.622;2022-11-15T14:09:02;14.20;99.90
4643;DHT22;2334;48.710;9.622;2022-11-15T14:11:29;14.20;99.90
4643;DHT22;2334;48.710;9.622;2022-11-15T14:14:13;14.20;99.90
4643;DHT22;2334;48.710;9.622;2022-11-15T14:16:42;14.10;99.90
4643;DHT22;2334;48.710;9.622;2022-11-15T14:19:11;14.10;99.90
4643;DHT22;2334;48.710;9.622;2022-11-15T14:24:41;14.00;99.90
4643;DHT22;2334;48.710;9.622;2022-11-15T14:27:20;14.10;99.90
4643;DHT22;2334;48.710;9.622;2022-11-15T14:29:47;14.00;99.90
4643;DHT22;2334;48.710;9.622;2022-11-15T14:32:16;14.00;99.90
4643;DHT22;2334;48.710;9.622;2022-11-15T14:34:44;14.00;99.90
4643;DHT22;2334;48.710;9.622;2022-11-15T14:37:19;14.00;99.90
4643;DHT22;2334;48.710;9.622;2022-11-15T14:39:49;13.90;99.90
4643;DHT22;2334;48.710;9.622;2022-11-15T14:42:16;13.90;99.90
4643;DHT22;2334;48.710;9.622;2022-11-15T14:44:44;13.80;99.90
4643;DHT22;2334;48.710;9.622;2022-11-15T14:47:11;13.70;99.90
4643;DHT22;2334;48.710;9.622;2022-11-15T14:49:38;13.60;99.90
4643;DHT22;2334;48.710;9.622;2022-11-15T14:52:12;13.60;99.90
4643;DHT22;2334;48.710;9.622;2022-11-15T14:54:43;13.50;99.90
4643;DHT22;2334;48.710;9.622;2022-11-15T14:57:11;13.50;99.90
4643;DHT22;2334;48.710;9.622;2022-11-15T14:59:38;13.40;99.90
4643;DHT22;2334;48.710;9.622;2022-11-15T15:02:12;13.30;99.90
4643;DHT22;2334;48.710;9.622;2022-11-15T15:04:42;13.30;99.90
4643;DHT22;2334;48.710;9.622;2022-11-15T15:07:08;13.20;99.90
4643;DHT22;2334;48.710;9.622;2022-11-15T15:09:35;13.10;99.90
4643;DHT22;2334;48.710;9.622;2022-11-15T15:12:03;13.10;99.90
4643;DHT22;2334;48.710;9.622;2022-11-15T15:14:31;13.00;99.90
4643;DHT22;2334;48.710;9.622;2022-11-15T15:16:58;12.90;99.90
4643;DHT22;2334;48.710;9.622;2022-11-15T15:19:25;12.90;99.90
4643;DHT22;2334;48.710;9.622;2022-11-15T15:21:52;12.80;99.90
4643;DHT22;2334;48.710;9.622;2022-11-15T15:24:19;12.70;99.90
4643;DHT22;2334;48.710;9.622;2022-11-15T15:26:46;12.70;99.90
4643;DHT22;2334;48.710;9.622;2022-11-15T15:29:12;12.60;99.90
4643;DHT22;2334;48.710;9.622;2022-11-15T15:31:41;12.60;99.90
4643;DHT22;2334;48.710;9.622;2022-11-15T15:34:08;12.50;99.90
4643;DHT22;2334;48.710;9.622;2022-11-15T15:36:34;12.50;99.90
4643;DHT22;2334;48.710;9.622;2022-11-15T15:39:01;12.40;99.90
4643;DHT22;2334;48.710;9.622;2022-11-15T15:41:28;12.30;99.90
4643;DHT22;2334;48.710;9.622;2022-11-15T15:43:55;12.30;99.90
4643;DHT22;2334;48.710;9.622;2022-11-15T15:46:22;12.30;99.90
4643;DHT22;2334;48.710;9.622;2022-11-15T15:48:50;12.20;99.90
4643;DHT22;2334;48.710;9.622;2022-11-15T15:51:17;12.10;99.90
4643;DHT22;2334;48.710;9.622;2022-11-15T15:53:44;12.10;99.90
4643;DHT22;2334;48.710;9.622;2022-11-15T15:56:11;12.00;99.90
4643;DHT22;2334;48.710;9.622;2022-11-15T15:58:38;11.90;99.90
4643;DHT22;2334;48.710;9.622;2022-11-15T16:01:05;11.90;99.90
4643;DHT22;2334;48.710;9.622;2022-11-15T16:03:32;11.80;99.90
4643;DHT22;2334;48.710;9.622;2022-11-15T16:06:00;11.80;99.90
4643;DHT22;2334;48.710;9.622;2022-11-15T16:08:29;11.70;99.90
4643;DHT22;2334;48.710;9.622;2022-11-15T16:10:56;11.60;99.90
4643;DHT22;2334;48.710;9.622;2022-11-15T16:13:23;11.60;99.90
4643;DHT22;2334;48.710;9.622;2022-11-15T16:15:52;11.60;99.90
4643;DHT22;2334;48.710;9.622;2022-11-15T16:18:21;11.50;99.90
4643;DHT22;2334;48.710;9.622;2022-11-15T16:20:48;11.50;99.90
4643;DHT22;2334;48.710;9.622;2022-11-15T16:23:19;11.50;99.90
4643;DHT22;2334;48.710;9.622;2022-11-15T16:25:51;11.50;99.90
4643;DHT22;2334;48.710;9.622;2022-11-15T16:28:20;11.50;99.90
4643;DHT22;2334;48.710;9.622;2022-11-15T16:30:47;11.50;99.90
4643;DHT22;2334;48.710;9.622;2022-11-15T16:33:15;11.50;99.90
4643;DHT22;2334;48.710;9.622;2022-11-15T16:35:43;11.50;99.90
4643;DHT22;2334;48.710;9.622;2022-11-15T16:38:14;11.60;99.90